createdAt,value
2018-06-12T00:01:50.413Z,10.77
2018-06-12T00:04:19.157Z,10.23
2018-06-12T00:06:47.878Z,11.37
2018-06-12T00:09:16.582Z,10.27
2018-06-12T00:11:45.306Z,10.40
2018-06-12T00:14:14.056Z,10.23
2018-06-12T00:16:42.799Z,12.07
2018-06-12T00:19:11.509Z,10.13
2018-06-12T00:21:40.305Z,13.03
2018-06-12T00:24:09.014Z,9.37
2018-06-12T00:26:37.747Z,10.70
2018-06-12T00:29:06.525Z,13.27
2018-06-12T00:31:35.253Z,11.93
2018-06-12T00:34:03.957Z,9.87
2018-06-12T00:36:32.661Z,10.23
2018-06-12T00:39:01.418Z,9.30
2018-06-12T00:41:30.130Z,10.50
2018-06-12T00:43:58.873Z,12.30
2018-06-12T00:46:27.742Z,10.93
2018-06-12T00:48:56.502Z,12.27
2018-06-12T00:51:25.260Z,11.53
2018-06-12T00:53:53.977Z,11.80
2018-06-12T00:56:34.233Z,12.63
2018-06-12T00:59:02.981Z,10.57
2018-06-12T01:01:31.693Z,10.00
2018-06-12T01:04:01.061Z,9.50
2018-06-12T01:06:29.769Z,10.70
2018-06-12T01:08:58.465Z,11.87
2018-06-12T01:11:27.187Z,11.87
2018-06-12T01:13:55.969Z,11.00
2018-06-12T01:16:24.551Z,10.83
2018-06-12T01:18:52.952Z,15.30
2018-06-12T01:21:21.581Z,10.97
2018-06-12T01:23:51.125Z,12.40
2018-06-12T01:26:19.904Z,13.40
2018-06-12T01:28:48.630Z,11.10
2018-06-12T01:31:17.378Z,12.80
2018-06-12T01:33:46.148Z,11.03
2018-06-12T01:36:15.002Z,11.97
2018-06-12T01:38:43.737Z,12.60
2018-06-12T01:41:12.430Z,11.57
2018-06-12T01:43:41.149Z,14.10
2018-06-12T01:46:09.681Z,9.13
2018-06-12T01:48:38.345Z,10.00
2018-06-12T01:51:07.073Z,12.27
2018-06-12T01:53:35.785Z,11.97
2018-06-12T01:56:04.517Z,11.03
2018-06-12T01:58:33.378Z,8.70
2018-06-12T02:01:02.081Z,11.43
2018-06-12T02:03:30.825Z,10.60
2018-06-12T02:05:59.721Z,10.37
2018-06-12T02:08:28.454Z,8.53
2018-06-12T02:10:57.185Z,8.87
2018-06-12T02:13:25.933Z,9.23
2018-06-12T02:15:54.129Z,9.77
2018-06-12T02:18:22.842Z,9.53
2018-06-12T02:20:51.574Z,11.30
2018-06-12T02:23:20.304Z,10.00
2018-06-12T02:25:49.017Z,9.00
2018-06-12T02:28:17.735Z,8.77
2018-06-12T02:30:46.449Z,12.57
2018-06-12T02:33:15.226Z,11.53
2018-06-12T02:35:43.970Z,12.03
2018-06-12T02:38:12.657Z,11.80
2018-06-12T02:40:41.386Z,9.67
2018-06-12T02:43:10.153Z,10.37
2018-06-12T02:45:38.922Z,11.30
2018-06-12T02:48:07.658Z,9.20
2018-06-12T02:50:36.369Z,11.47
2018-06-12T02:53:05.093Z,11.20
2018-06-12T02:55:33.810Z,11.87
2018-06-12T02:58:02.529Z,13.90
2018-06-12T03:00:31.406Z,10.97
2018-06-12T03:03:00.094Z,10.10
2018-06-12T03:05:28.789Z,14.70
2018-06-12T03:07:57.697Z,10.40
2018-06-12T03:10:26.414Z,10.57
2018-06-12T03:12:55.111Z,9.73
2018-06-12T03:15:25.874Z,11.80
2018-06-12T03:17:54.683Z,10.30
2018-06-12T03:20:54.205Z,9.40
2018-06-12T03:23:22.949Z,11.87
2018-06-12T03:25:58.065Z,10.97
2018-06-12T03:28:26.777Z,10.90
2018-06-12T03:30:55.477Z,11.70
2018-06-12T03:33:24.201Z,13.40
2018-06-12T03:35:52.901Z,12.07
2018-06-12T03:38:21.528Z,8.27
2018-06-12T03:40:50.142Z,9.27
2018-06-12T03:43:18.861Z,8.90
2018-06-12T03:45:47.586Z,9.43
2018-06-12T03:48:16.475Z,10.30
2018-06-12T03:50:45.166Z,10.13
2018-06-12T03:53:13.925Z,14.13
2018-06-12T03:55:42.630Z,9.47
2018-06-12T03:58:11.337Z,12.47
2018-06-12T04:00:40.126Z,11.83
2018-06-12T04:03:08.825Z,9.20
2018-06-12T04:05:37.542Z,10.43
2018-06-12T04:08:06.289Z,9.43
2018-06-12T04:10:35.029Z,8.70
2018-06-12T04:13:03.746Z,8.53
2018-06-12T04:15:32.450Z,9.00
2018-06-12T04:18:01.181Z,8.70
2018-06-12T04:20:29.856Z,11.37
2018-06-12T04:22:58.496Z,8.87
2018-06-12T04:25:27.209Z,9.87
2018-06-12T04:27:55.930Z,11.60
2018-06-12T04:30:25.349Z,9.47
2018-06-12T04:32:54.070Z,10.10
2018-06-12T04:35:22.802Z,14.17
2018-06-12T04:37:51.504Z,11.67
2018-06-12T04:40:20.206Z,10.47
2018-06-12T04:42:48.921Z,10.73
2018-06-12T04:45:17.646Z,10.47
2018-06-12T04:47:46.355Z,12.40
2018-06-12T04:50:15.062Z,12.10
2018-06-12T04:52:43.785Z,10.13
2018-06-12T04:55:12.565Z,11.70
2018-06-12T04:57:41.297Z,12.80
2018-06-12T05:00:10.153Z,14.70
2018-06-12T05:02:38.857Z,8.83
2018-06-12T05:05:07.590Z,10.50
2018-06-12T05:07:36.430Z,10.80
2018-06-12T05:10:05.389Z,13.70
2018-06-12T05:12:34.101Z,10.00
2018-06-12T05:15:02.825Z,8.90
2018-06-12T05:17:31.364Z,9.93
2018-06-12T05:20:00.164Z,8.97
2018-06-12T05:22:28.910Z,9.27
2018-06-12T05:24:57.649Z,7.87
2018-06-12T05:27:26.362Z,7.77
2018-06-12T05:29:55.069Z,9.47
2018-06-12T05:32:23.801Z,12.40
2018-06-12T05:34:52.517Z,9.60
2018-06-12T05:37:21.210Z,8.63
2018-06-12T05:39:49.950Z,9.93
2018-06-12T05:42:24.913Z,10.50
2018-06-12T05:44:53.649Z,8.17
2018-06-12T05:47:22.458Z,9.60
2018-06-12T05:49:51.170Z,10.33
2018-06-12T05:52:19.913Z,7.00
2018-06-12T05:54:48.625Z,7.93
2018-06-12T05:57:17.414Z,9.90
2018-06-12T06:00:00.741Z,9.73
2018-06-12T06:02:29.450Z,7.67
2018-06-12T06:04:59.290Z,9.57
2018-06-12T06:07:28.025Z,10.83
2018-06-12T06:09:56.729Z,7.83
2018-06-12T06:12:25.749Z,8.17
2018-06-12T06:15:11.027Z,10.80
2018-06-12T06:17:43.930Z,9.60
2018-06-12T06:20:12.641Z,12.57
2018-06-12T06:22:41.375Z,8.57
2018-06-12T06:25:10.218Z,9.70
2018-06-12T06:27:38.923Z,10.03
2018-06-12T06:30:07.658Z,11.37
2018-06-12T06:32:45.362Z,8.30
2018-06-12T06:35:14.222Z,10.60
2018-06-12T06:37:42.945Z,8.20
2018-06-12T06:40:11.429Z,8.57
2018-06-12T06:42:40.257Z,8.77
2018-06-12T06:45:08.969Z,8.40
2018-06-12T06:47:37.680Z,11.70
2018-06-12T06:50:06.545Z,10.60
2018-06-12T06:52:35.249Z,11.63
2018-06-12T06:55:03.973Z,10.33
2018-06-12T06:57:32.690Z,10.07
2018-06-12T07:00:01.441Z,8.40
2018-06-12T07:02:30.152Z,8.20
2018-06-12T07:04:58.869Z,9.63
2018-06-12T07:07:27.590Z,10.73
2018-06-12T07:09:56.337Z,9.93
2018-06-12T07:12:25.178Z,8.63
2018-06-12T07:14:53.919Z,9.03
2018-06-12T07:17:22.603Z,10.50
2018-06-12T07:19:51.333Z,9.63
2018-06-12T07:22:20.033Z,12.60
2018-06-12T07:24:48.737Z,9.87
2018-06-12T07:27:17.449Z,9.13
2018-06-12T07:29:46.193Z,8.93
2018-06-12T07:32:14.935Z,10.03
2018-06-12T07:34:43.625Z,9.43
2018-06-12T07:37:12.369Z,8.97
2018-06-12T07:39:41.091Z,10.97
2018-06-12T07:42:09.904Z,10.93
2018-06-12T07:44:38.630Z,12.83
2018-06-12T07:47:07.366Z,12.40
2018-06-12T07:49:36.190Z,13.10
2018-06-12T07:52:04.961Z,10.93
2018-06-12T07:54:33.665Z,9.97
2018-06-12T07:57:02.425Z,9.77
2018-06-12T07:59:31.154Z,13.03
2018-06-12T08:01:59.863Z,11.30
2018-06-12T08:04:28.609Z,12.77
2018-06-12T08:06:57.369Z,11.20
2018-06-12T08:09:26.061Z,11.20
2018-06-12T08:11:54.782Z,10.60
2018-06-12T08:14:23.540Z,10.80
2018-06-12T08:16:53.338Z,13.67
2018-06-12T08:19:22.057Z,11.43
2018-06-12T08:21:50.901Z,10.87
2018-06-12T08:24:20.298Z,12.70
2018-06-12T08:26:49.714Z,10.60
2018-06-12T08:29:18.940Z,12.43
2018-06-12T08:31:47.661Z,10.27
2018-06-12T08:34:16.408Z,10.67
2018-06-12T08:36:45.117Z,12.03
2018-06-12T08:39:13.842Z,10.87
2018-06-12T08:41:42.579Z,10.30
2018-06-12T08:44:11.350Z,14.93
2018-06-12T08:46:40.130Z,12.83
2018-06-12T08:49:08.817Z,10.83
2018-06-12T08:51:37.594Z,11.10
2018-06-12T08:54:06.477Z,13.00
2018-06-12T08:56:35.221Z,12.10
2018-06-12T08:59:03.981Z,11.47
2018-06-12T09:01:32.679Z,11.07
2018-06-12T09:04:01.396Z,12.33
2018-06-12T09:06:30.153Z,11.47
2018-06-12T09:08:58.867Z,14.50
2018-06-12T09:11:27.586Z,11.60
2018-06-12T09:13:56.297Z,10.90
2018-06-12T09:16:25.009Z,10.63
2018-06-12T09:18:53.749Z,12.80
2018-06-12T09:21:22.504Z,12.67
2018-06-12T09:23:51.226Z,10.63
2018-06-12T09:26:19.965Z,12.40
2018-06-12T09:28:48.687Z,10.87
2018-06-12T09:31:17.591Z,11.43
2018-06-12T09:33:46.330Z,12.03
2018-06-12T09:36:20.508Z,11.53
2018-06-12T09:38:49.182Z,10.37
2018-06-12T09:41:17.889Z,10.37
2018-06-12T09:43:46.711Z,10.30
2018-06-12T09:46:15.421Z,11.03
2018-06-12T09:48:44.157Z,9.90
2018-06-12T09:51:12.900Z,9.87
2018-06-12T09:53:41.724Z,14.37
2018-06-12T09:56:10.437Z,9.97
2018-06-12T09:58:39.326Z,8.80
2018-06-12T10:01:13.384Z,10.10
2018-06-12T10:03:41.933Z,10.67
2018-06-12T10:06:10.631Z,11.90
2018-06-12T10:08:39.305Z,11.13
2018-06-12T10:11:08.054Z,10.37
2018-06-12T10:13:36.777Z,14.50
2018-06-12T10:16:05.637Z,12.77
2018-06-12T10:18:34.389Z,11.73
2018-06-12T10:21:03.190Z,12.57
2018-06-12T10:23:34.961Z,11.00
2018-06-12T10:26:03.677Z,13.20
2018-06-12T10:28:32.409Z,11.90
2018-06-12T10:31:01.290Z,12.07
2018-06-12T10:33:29.994Z,13.67
2018-06-12T10:35:58.747Z,16.00
2018-06-12T10:38:27.491Z,11.63
2018-06-12T10:40:56.220Z,16.93
2018-06-12T10:43:24.973Z,11.93
2018-06-12T10:45:53.707Z,12.27
2018-06-12T10:48:22.473Z,10.90
2018-06-12T10:50:51.221Z,12.90
2018-06-12T10:53:19.936Z,11.70
2018-06-12T10:55:48.698Z,13.10
2018-06-12T10:58:17.449Z,13.43
2018-06-12T11:00:46.165Z,13.50
2018-06-12T11:03:14.905Z,12.47
2018-06-12T11:05:43.626Z,12.07
2018-06-12T11:08:12.421Z,11.67
2018-06-12T11:10:41.141Z,12.27
2018-06-12T11:13:09.990Z,14.37
2018-06-12T11:15:38.710Z,11.57
2018-06-12T11:18:08.446Z,15.63
2018-06-12T11:20:37.160Z,12.33
2018-06-12T11:23:06.871Z,13.73
2018-06-12T11:25:35.589Z,14.90
2018-06-12T11:28:04.320Z,13.17
2018-06-12T11:30:33.414Z,13.73
2018-06-12T11:33:02.151Z,11.77
2018-06-12T11:35:30.866Z,14.30
2018-06-12T11:38:00.674Z,10.37
2018-06-12T11:40:29.426Z,12.90
2018-06-12T11:42:58.189Z,13.03
2018-06-12T11:45:26.904Z,12.37
2018-06-12T11:47:55.674Z,11.33
2018-06-12T11:50:24.395Z,15.17
2018-06-12T11:52:53.118Z,10.73
2018-06-12T11:55:21.826Z,12.07
2018-06-12T11:57:50.586Z,9.77
2018-06-12T12:00:19.334Z,10.40
2018-06-12T12:02:48.032Z,8.97
2018-06-12T12:05:16.752Z,11.27
2018-06-12T12:07:45.480Z,10.87
2018-06-12T12:10:14.233Z,9.40
2018-06-12T12:12:42.937Z,11.10
2018-06-12T12:15:11.810Z,8.47
2018-06-12T12:17:40.530Z,10.10
2018-06-12T12:20:09.253Z,12.23
2018-06-12T12:22:38.133Z,9.33
2018-06-12T12:25:06.904Z,9.83
2018-06-12T12:27:35.585Z,9.37
2018-06-12T12:30:04.516Z,7.90
2018-06-12T12:32:33.339Z,8.80
2018-06-12T12:35:02.062Z,10.07
2018-06-12T12:37:30.806Z,9.70
2018-06-12T12:39:59.553Z,7.53
2018-06-12T12:42:28.273Z,8.77
2018-06-12T12:44:57.337Z,10.20
2018-06-12T12:47:26.737Z,8.13
2018-06-12T12:49:56.250Z,7.87
2018-06-12T12:52:26.538Z,7.30
2018-06-12T12:54:57.344Z,9.63
2018-06-12T12:57:27.168Z,7.83
2018-06-12T12:59:57.066Z,8.60
2018-06-12T13:02:26.516Z,7.57
2018-06-12T13:04:56.045Z,7.90
2018-06-12T13:07:25.593Z,7.30
2018-06-12T13:09:54.433Z,6.10
2018-06-12T13:12:23.602Z,6.13
2018-06-12T13:14:53.360Z,8.60
2018-06-12T13:17:22.736Z,7.73
2018-06-12T13:19:52.362Z,6.63
2018-06-12T13:22:21.817Z,10.10
2018-06-12T13:24:51.447Z,5.97
2018-06-12T13:27:21.197Z,6.53
2018-06-12T13:29:50.629Z,6.13
2018-06-12T13:32:19.346Z,9.80
2018-06-12T13:34:48.081Z,8.17
2018-06-12T13:37:16.806Z,6.00
2018-06-12T13:39:45.538Z,9.43
2018-06-12T13:42:14.298Z,7.30
2018-06-12T13:44:42.997Z,6.13
2018-06-12T13:47:11.706Z,6.93
2018-06-12T13:49:40.468Z,6.10
2018-06-12T13:52:09.169Z,5.77
2018-06-12T13:54:37.924Z,8.70
2018-06-12T13:57:06.578Z,6.43
2018-06-12T13:59:35.309Z,8.27
2018-06-12T14:02:04.030Z,5.57
2018-06-12T14:04:32.754Z,8.07
2018-06-12T14:07:01.533Z,5.80
2018-06-12T14:09:30.254Z,9.17
2018-06-12T14:11:59.009Z,5.33
2018-06-12T14:14:27.735Z,7.57
2018-06-12T14:16:56.450Z,5.83
2018-06-12T14:19:25.145Z,7.07
2018-06-12T14:21:53.930Z,7.13
2018-06-12T14:24:22.666Z,6.60
2018-06-12T14:26:51.407Z,6.07
2018-06-12T14:29:20.113Z,5.77
2018-06-12T14:31:48.813Z,5.53
2018-06-12T14:34:17.525Z,5.13
2018-06-12T14:36:46.225Z,8.00
2018-06-12T14:39:14.930Z,5.00
2018-06-12T14:41:43.630Z,6.70
2018-06-12T14:44:12.341Z,7.13
2018-06-12T14:46:41.171Z,6.70
2018-06-12T14:49:09.885Z,9.10
2018-06-12T14:51:38.729Z,6.87
2018-06-12T14:54:07.449Z,6.00
2018-06-12T14:56:36.178Z,5.77
2018-06-12T14:59:05.089Z,6.13
2018-06-12T15:01:33.790Z,5.97
2018-06-12T15:04:02.529Z,4.77
2018-06-12T15:06:31.266Z,5.90
2018-06-12T15:09:00.017Z,5.37
2018-06-12T15:11:28.698Z,5.80
2018-06-12T15:13:57.549Z,5.53
2018-06-12T15:16:26.318Z,4.60
2018-06-12T15:18:55.029Z,4.20
2018-06-12T15:21:23.785Z,5.00
2018-06-12T15:23:52.514Z,4.73
2018-06-12T15:26:21.239Z,4.80
2018-06-12T15:28:49.976Z,4.70
2018-06-12T15:31:18.668Z,4.30
2018-06-12T15:33:47.438Z,4.27
2018-06-12T15:36:16.320Z,8.03
2018-06-12T15:38:45.019Z,4.40
2018-06-12T15:41:13.770Z,3.93
2018-06-12T15:43:42.521Z,7.83
2018-06-12T15:46:11.373Z,7.03
2018-06-12T15:48:40.066Z,4.43
2018-06-12T15:51:08.768Z,4.50
2018-06-12T15:53:37.465Z,5.67
2018-06-12T15:56:06.331Z,4.27
2018-06-12T15:58:34.990Z,4.80
2018-06-12T16:01:03.733Z,4.10
2018-06-12T16:03:32.485Z,5.10
2018-06-12T16:06:01.218Z,4.53
2018-06-12T16:08:29.921Z,4.33
2018-06-12T16:10:58.662Z,4.03
2018-06-12T16:13:27.377Z,5.40
2018-06-12T16:15:56.319Z,4.17
2018-06-12T16:18:25.019Z,5.47
2018-06-12T16:20:53.741Z,4.47
2018-06-12T16:23:22.437Z,4.23
2018-06-12T16:25:51.145Z,4.33
2018-06-12T16:28:19.845Z,4.50
2018-06-12T16:30:48.596Z,3.93
2018-06-12T16:33:17.296Z,7.33
2018-06-12T16:35:46.009Z,5.07
2018-06-12T16:38:14.758Z,7.40
2018-06-12T16:40:43.465Z,3.50
2018-06-12T16:43:12.194Z,4.00
2018-06-12T16:45:40.949Z,5.13
2018-06-12T16:48:09.669Z,6.23
2018-06-12T16:50:38.209Z,4.00
2018-06-12T16:53:06.833Z,3.33
2018-06-12T16:55:35.538Z,6.50
2018-06-12T16:58:04.281Z,5.23
2018-06-12T17:00:33.009Z,5.27
2018-06-12T17:03:01.742Z,7.47
2018-06-12T17:05:30.461Z,7.97
2018-06-12T17:07:59.149Z,4.90
2018-06-12T17:10:27.882Z,5.20
2018-06-12T17:12:58.672Z,4.97
2018-06-12T17:15:27.385Z,6.73
2018-06-12T17:17:56.124Z,5.23
2018-06-12T17:20:24.905Z,6.37
2018-06-12T17:22:55.725Z,3.73
2018-06-12T17:25:24.477Z,4.30
2018-06-12T17:27:53.333Z,5.10
2018-06-12T17:30:22.074Z,4.27
2018-06-12T17:32:50.885Z,5.30
2018-06-12T17:35:19.625Z,3.90
2018-06-12T17:37:48.113Z,4.60
2018-06-12T17:40:16.758Z,5.30
2018-06-12T17:42:45.457Z,5.47
2018-06-12T17:45:14.337Z,5.63
2018-06-12T17:47:43.101Z,5.67
2018-06-12T17:50:11.833Z,7.07
2018-06-12T17:52:40.673Z,5.67
2018-06-12T17:55:09.463Z,4.00
2018-06-12T17:57:38.158Z,3.83
2018-06-12T18:00:13.641Z,3.43
2018-06-12T18:02:42.485Z,6.70
2018-06-12T18:05:11.213Z,6.47
2018-06-12T18:07:40.090Z,5.17
2018-06-12T18:10:08.881Z,5.60
2018-06-12T18:12:37.561Z,4.83
2018-06-12T18:15:06.261Z,8.00
2018-06-12T18:17:35.039Z,9.80
2018-06-12T18:20:03.746Z,3.90
2018-06-12T18:22:32.492Z,4.07
2018-06-12T18:25:01.262Z,5.07
2018-06-12T18:27:29.925Z,4.37
2018-06-12T18:29:58.634Z,8.03
2018-06-12T18:32:27.333Z,3.37
2018-06-12T18:34:56.070Z,4.80
2018-06-12T18:37:24.928Z,5.60
2018-06-12T18:39:53.570Z,3.27
2018-06-12T18:42:22.273Z,3.63
2018-06-12T18:44:51.020Z,5.67
2018-06-12T18:47:19.790Z,3.83
2018-06-12T18:49:48.268Z,5.40
2018-06-12T18:52:16.893Z,4.93
2018-06-12T18:54:45.393Z,5.67
2018-06-12T18:57:13.999Z,7.70
2018-06-12T18:59:42.749Z,4.67
2018-06-12T19:02:11.461Z,3.93
2018-06-12T19:04:40.162Z,5.67
2018-06-12T19:07:08.958Z,3.13
2018-06-12T19:09:37.686Z,3.37
2018-06-12T19:12:06.496Z,3.50
2018-06-12T19:14:35.234Z,3.13
2018-06-12T19:17:03.995Z,3.23
2018-06-12T19:19:32.734Z,5.87
2018-06-12T19:22:01.454Z,7.67
2018-06-12T19:24:30.141Z,3.93
2018-06-12T19:27:01.104Z,4.53
2018-06-12T19:29:29.801Z,5.00
2018-06-12T19:31:58.621Z,3.30
2018-06-12T19:34:27.329Z,4.77
2018-06-12T19:36:56.170Z,3.77
2018-06-12T19:39:24.923Z,2.67
2018-06-12T19:41:54.158Z,3.87
2018-06-12T19:44:22.960Z,8.13
2018-06-12T19:46:51.689Z,3.30
2018-06-12T19:49:20.189Z,3.30
2018-06-12T19:51:48.837Z,3.83
2018-06-12T19:54:17.725Z,3.20
2018-06-12T19:56:46.490Z,5.20
2018-06-12T19:59:15.209Z,7.37
2018-06-12T20:01:43.910Z,3.30
2018-06-12T20:04:12.639Z,3.63
2018-06-12T20:06:41.414Z,7.57
2018-06-12T20:09:10.152Z,3.97
2018-06-12T20:11:38.857Z,4.90
2018-06-12T20:14:07.590Z,5.27
2018-06-12T20:16:36.317Z,7.43
2018-06-12T20:19:05.026Z,4.83
2018-06-12T20:21:33.752Z,5.30
2018-06-12T20:24:02.550Z,7.40
2018-06-12T20:26:31.262Z,4.23
2018-06-12T20:28:59.953Z,4.67
2018-06-12T20:31:28.670Z,3.23
2018-06-12T20:33:57.477Z,5.30
2018-06-12T20:36:26.266Z,4.80
2018-06-12T20:38:55.078Z,5.70
2018-06-12T20:41:23.841Z,6.43
2018-06-12T20:43:52.573Z,3.60
2018-06-12T20:46:21.479Z,3.60
2018-06-12T20:48:50.205Z,3.50
2018-06-12T20:51:18.917Z,7.27
2018-06-12T20:53:47.824Z,4.03
2018-06-12T20:56:16.569Z,6.20
2018-06-12T20:58:45.329Z,4.27
2018-06-12T21:01:14.071Z,3.87
2018-06-12T21:03:42.832Z,8.13
2018-06-12T21:06:11.548Z,4.03
2018-06-12T21:08:41.358Z,3.60
2018-06-12T21:11:10.077Z,5.10
2018-06-12T21:13:38.781Z,6.13
2018-06-12T21:16:07.705Z,5.03
2018-06-12T21:18:36.405Z,5.27
2018-06-12T21:21:05.102Z,3.50
2018-06-12T21:23:33.913Z,4.97
2018-06-12T21:26:02.642Z,4.73
2018-06-12T21:28:33.365Z,5.87
2018-06-12T21:31:02.086Z,3.50
2018-06-12T21:33:30.811Z,3.40
2018-06-12T21:35:59.595Z,5.43
2018-06-12T21:38:28.485Z,4.10
2018-06-12T21:40:57.193Z,5.10
2018-06-12T21:43:25.901Z,3.73
2018-06-12T21:45:54.648Z,4.50
2018-06-12T21:48:23.357Z,5.67
2018-06-12T21:50:52.066Z,5.43
2018-06-12T21:53:20.782Z,8.80
2018-06-12T21:55:49.489Z,5.77
2018-06-12T21:58:18.201Z,5.90
2018-06-12T22:00:46.913Z,7.60
2018-06-12T22:03:15.653Z,8.27
2018-06-12T22:05:44.369Z,9.87
2018-06-12T22:08:13.254Z,5.80
2018-06-12T22:10:41.948Z,5.67
2018-06-12T22:13:10.698Z,5.93
2018-06-12T22:15:39.401Z,6.37
2018-06-12T22:18:08.202Z,6.47
2018-06-12T22:20:36.913Z,9.50
2018-06-12T22:23:06.596Z,7.87
2018-06-12T22:25:35.313Z,9.20
2018-06-12T22:28:04.217Z,6.87
2018-06-12T22:30:32.933Z,6.30
2018-06-12T22:33:01.754Z,8.70
2018-06-12T22:35:30.445Z,7.80
2018-06-12T22:37:59.149Z,10.93
2018-06-12T22:40:27.853Z,8.63
2018-06-12T22:42:58.157Z,6.90
2018-06-12T22:45:26.902Z,6.97
2018-06-12T22:47:55.661Z,6.83
2018-06-12T22:50:24.145Z,7.70
2018-06-12T22:52:52.753Z,9.10
2018-06-12T22:55:21.470Z,9.30
2018-06-12T22:57:50.292Z,10.73
2018-06-12T23:00:20.513Z,9.70
2018-06-12T23:02:49.230Z,7.73
2018-06-12T23:05:17.961Z,8.27
2018-06-12T23:07:46.665Z,8.90
2018-06-12T23:10:15.461Z,6.60
2018-06-12T23:12:44.146Z,5.10
2018-06-12T23:15:12.856Z,9.03
2018-06-12T23:17:41.572Z,6.40
2018-06-12T23:20:21.632Z,8.30
2018-06-12T23:22:50.357Z,7.03
2018-06-12T23:25:19.456Z,5.50
2018-06-12T23:27:48.166Z,8.70
2018-06-12T23:30:16.861Z,7.70
2018-06-12T23:32:45.578Z,9.10
2018-06-12T23:35:14.265Z,6.37
2018-06-12T23:37:42.985Z,5.83
2018-06-12T23:40:11.778Z,6.77
2018-06-12T23:42:40.489Z,6.70
2018-06-12T23:45:09.257Z,7.97
2018-06-12T23:47:37.993Z,9.43
2018-06-12T23:50:06.728Z,8.40
2018-06-12T23:52:35.462Z,5.43
2018-06-12T23:55:04.198Z,8.13
2018-06-12T23:57:32.924Z,7.73
